createdAt,value
2019-03-24T00:11:23.459Z,149.77
2019-03-24T00:20:26.601Z,142.97
2019-03-24T00:22:58.358Z,162.33
2019-03-24T00:35:55.008Z,168.70
2019-03-24T00:58:28.476Z,171.80
2019-03-24T01:07:38.807Z,195.50
2019-03-24T01:10:10.612Z,188.57
2019-03-24T01:16:25.562Z,166.00
2019-03-24T01:29:33.502Z,186.50
2019-03-24T01:40:01.664Z,207.33
2019-03-24T01:46:52.154Z,218.23
2019-03-24T01:56:18.664Z,237.77
2019-03-24T01:58:49.812Z,247.20
2019-03-24T02:01:20.200Z,272.43
2019-03-24T02:03:50.558Z,279.97
2019-03-24T02:06:20.943Z,263.53
2019-03-24T02:08:51.308Z,277.50
2019-03-24T02:11:21.681Z,285.23
2019-03-24T02:13:52.050Z,276.90
2019-03-24T02:16:22.425Z,282.43
2019-03-24T02:18:52.807Z,295.77
2019-03-24T02:21:23.159Z,281.53
2019-03-24T02:23:53.521Z,331.80
2019-03-24T02:26:24.091Z,301.97
2019-03-24T02:28:54.456Z,338.90
2019-03-24T02:31:24.836Z,325.23
2019-03-24T02:33:55.172Z,346.57
2019-03-24T02:36:25.540Z,354.53
2019-03-24T02:38:55.890Z,386.80
2019-03-24T02:41:26.265Z,349.93
2019-03-24T02:43:56.700Z,360.30
2019-03-24T02:46:27.062Z,382.10
2019-03-24T02:48:57.507Z,387.50
2019-03-24T02:51:27.961Z,402.87
2019-03-24T02:53:58.328Z,403.10
2019-03-24T02:56:28.710Z,419.83
2019-03-24T02:58:59.083Z,382.43
2019-03-24T03:01:30.181Z,392.03
2019-03-24T03:04:00.548Z,403.30
2019-03-24T03:06:30.929Z,378.13
2019-03-24T03:09:01.295Z,366.60
2019-03-24T03:11:31.676Z,399.20
2019-03-24T03:14:02.085Z,385.77
2019-03-24T03:16:38.275Z,405.00
2019-03-24T03:19:04.633Z,400.93
2019-03-24T03:21:35.046Z,410.67
2019-03-24T03:24:05.475Z,406.73
2019-03-24T03:26:35.829Z,431.30
2019-03-24T03:29:06.213Z,394.27
2019-03-24T03:31:36.658Z,399.20
2019-03-24T03:34:07.101Z,411.43
2019-03-24T03:36:37.505Z,413.60
2019-03-24T03:39:07.914Z,452.63
2019-03-24T03:41:38.800Z,434.93
2019-03-24T03:44:09.169Z,426.07
2019-03-24T03:46:51.928Z,409.67
2019-03-24T03:49:11.585Z,431.13
2019-03-24T03:51:41.969Z,427.87
2019-03-24T03:54:12.339Z,410.50
2019-03-24T03:56:42.709Z,424.27
2019-03-24T03:59:13.140Z,421.77
2019-03-24T04:01:43.493Z,404.80
2019-03-24T04:04:14.591Z,420.20
2019-03-24T04:06:44.981Z,442.67
2019-03-24T04:09:15.352Z,421.27
2019-03-24T04:11:45.748Z,466.80
2019-03-24T04:14:16.138Z,456.60
2019-03-24T04:16:46.517Z,475.93
2019-03-24T04:19:16.889Z,467.57
2019-03-24T04:21:47.264Z,464.60
2019-03-24T04:24:17.657Z,480.27
2019-03-24T04:26:48.575Z,474.53
2019-03-24T04:29:18.979Z,462.20
2019-03-24T04:31:49.365Z,480.17
2019-03-24T04:34:19.733Z,478.40
2019-03-24T04:36:50.110Z,493.33
2019-03-24T04:39:20.531Z,544.83
2019-03-24T04:41:50.908Z,524.30
2019-03-24T04:44:21.283Z,540.13
2019-03-24T04:46:51.688Z,523.97
2019-03-24T04:49:22.088Z,548.97
2019-03-24T04:51:52.467Z,538.53
2019-03-24T04:54:22.855Z,534.00
2019-03-24T04:56:53.233Z,519.60
2019-03-24T04:59:23.670Z,553.07
2019-03-24T05:01:54.037Z,528.80
2019-03-24T05:04:24.394Z,520.87
2019-03-24T05:06:55.669Z,583.50
2019-03-24T05:09:26.999Z,553.53
2019-03-24T05:11:57.370Z,563.53
2019-03-24T05:14:27.769Z,561.10
2019-03-24T05:16:58.115Z,564.50
2019-03-24T05:19:28.492Z,569.93
2019-03-24T05:21:58.927Z,611.77
2019-03-24T05:24:29.334Z,620.23
2019-03-24T05:26:59.757Z,644.57
2019-03-24T05:29:30.188Z,576.10
2019-03-24T05:32:00.597Z,615.57
2019-03-24T05:34:30.958Z,613.77
2019-03-24T05:37:01.344Z,617.77
2019-03-24T05:39:31.696Z,582.57
2019-03-24T05:42:02.079Z,597.30
2019-03-24T05:44:32.474Z,648.97
2019-03-24T05:47:02.834Z,600.50
2019-03-24T05:49:33.242Z,619.63
2019-03-24T05:52:03.644Z,602.33
2019-03-24T05:54:34.062Z,580.43
2019-03-24T05:57:04.429Z,575.63
2019-03-24T05:59:34.846Z,589.50
2019-03-24T06:02:05.286Z,543.13
2019-03-24T06:04:35.658Z,570.53
2019-03-24T06:07:07.010Z,597.03
2019-03-24T06:09:37.634Z,566.53
2019-03-24T06:12:08.322Z,540.17
2019-03-24T06:14:38.963Z,524.33
2019-03-24T06:17:09.658Z,554.73
2019-03-24T06:19:40.274Z,512.27
2019-03-24T06:22:10.914Z,506.40
2019-03-24T06:24:41.531Z,489.23
2019-03-24T06:27:12.167Z,478.60
2019-03-24T06:29:43.199Z,449.47
2019-03-24T06:32:13.912Z,412.10
2019-03-24T06:34:44.600Z,425.17
2019-03-24T06:37:15.260Z,369.40
2019-03-24T06:39:45.904Z,295.17
2019-03-24T06:42:16.646Z,281.03
2019-03-24T06:44:47.265Z,253.43
2019-03-24T06:47:17.874Z,223.83
2019-03-24T06:49:48.455Z,200.70
2019-03-24T06:52:19.144Z,165.47
2019-03-24T06:54:49.817Z,152.13
2019-03-24T06:57:20.417Z,125.13
2019-03-24T06:59:51.126Z,109.13
2019-03-24T07:02:23.895Z,96.20
2019-03-24T07:04:54.552Z,98.23
2019-03-24T07:07:26.043Z,81.23
2019-03-24T07:09:57.472Z,87.20
2019-03-24T07:12:28.323Z,74.50
2019-03-24T07:14:59.093Z,75.70
2019-03-24T07:17:29.747Z,71.87
2019-03-24T07:20:00.868Z,65.63
2019-03-24T07:22:31.792Z,74.73
2019-03-24T07:25:02.633Z,76.67
2019-03-24T07:27:33.382Z,124.67
2019-03-24T07:30:09.247Z,76.70
2019-03-24T07:32:39.983Z,71.60
2019-03-24T07:35:10.663Z,72.27
2019-03-24T07:37:41.293Z,77.90
2019-03-24T07:40:12.701Z,82.27
2019-03-24T07:42:43.300Z,79.32
2019-03-24T07:45:14.509Z,84.45
2019-03-24T07:47:45.107Z,68.37
2019-03-24T07:50:15.933Z,66.47
2019-03-24T07:52:46.552Z,58.35
2019-03-24T07:55:17.758Z,72.72
2019-03-24T07:57:48.944Z,61.92
2019-03-24T08:00:27.194Z,61.13
2019-03-24T08:02:58.460Z,64.45
2019-03-24T08:05:29.871Z,64.22
2019-03-24T08:08:01.277Z,60.90
2019-03-24T08:10:32.592Z,61.83
2019-03-24T08:13:03.973Z,58.92
2019-03-24T08:15:35.672Z,60.85
2019-03-24T08:18:07.154Z,59.98
2019-03-24T08:20:38.383Z,57.13
2019-03-24T08:23:09.577Z,54.77
2019-03-24T08:25:41.049Z,53.65
2019-03-24T08:28:12.495Z,63.30
2019-03-24T08:30:43.907Z,55.30
2019-03-24T08:33:15.275Z,57.78
2019-03-24T08:35:46.573Z,61.95
2019-03-24T08:38:17.900Z,52.83
2019-03-24T08:40:49.201Z,56.10
2019-03-24T08:43:20.507Z,60.25
2019-03-24T08:45:51.844Z,59.20
2019-03-24T08:48:23.221Z,56.10
2019-03-24T08:50:54.552Z,56.33
2019-03-24T08:53:25.896Z,58.45
2019-03-24T08:55:57.214Z,57.50
2019-03-24T08:58:28.548Z,55.05
2019-03-24T09:00:59.935Z,56.02
2019-03-24T09:03:32.731Z,56.58
2019-03-24T09:06:04.222Z,56.02
2019-03-24T09:08:35.551Z,54.67
2019-03-24T09:11:06.859Z,58.83
2019-03-24T09:13:38.181Z,52.80
2019-03-24T09:16:10.215Z,55.10
2019-03-24T09:18:52.170Z,52.23
2019-03-24T09:21:14.500Z,54.00
2019-03-24T09:23:46.016Z,53.25
2019-03-24T09:26:17.274Z,53.60
2019-03-24T09:28:48.652Z,47.73
2019-03-24T09:31:20.031Z,50.80
2019-03-24T09:33:51.332Z,50.03
2019-03-24T09:36:22.628Z,58.00
2019-03-24T09:38:54.311Z,51.13
2019-03-24T09:41:25.840Z,55.25
2019-03-24T09:43:57.507Z,52.23
2019-03-24T09:46:28.918Z,50.40
2019-03-24T09:49:03.388Z,49.50
2019-03-24T09:51:33.486Z,44.18
2019-03-24T09:54:05.111Z,49.33
2019-03-24T09:56:36.654Z,46.73
2019-03-24T09:59:08.074Z,48.85
2019-03-24T10:01:39.461Z,48.55
2019-03-24T10:04:10.849Z,45.92
2019-03-24T10:06:42.310Z,43.95
2019-03-24T10:09:13.713Z,45.90
2019-03-24T10:11:45.069Z,47.83
2019-03-24T10:14:16.455Z,47.73
2019-03-24T10:16:47.833Z,47.17
2019-03-24T10:19:19.525Z,50.12
2019-03-24T10:21:50.915Z,50.55
2019-03-24T10:24:22.281Z,48.83
2019-03-24T10:26:53.593Z,46.20
2019-03-24T10:29:24.903Z,45.92
2019-03-24T10:31:56.238Z,49.77
2019-03-24T10:34:27.595Z,48.10
2019-03-24T10:36:58.900Z,50.03
2019-03-24T10:39:32.016Z,51.28
2019-03-24T10:42:02.838Z,57.13
2019-03-24T10:44:33.732Z,60.75
2019-03-24T10:47:05.147Z,56.42
2019-03-24T10:49:35.976Z,61.42
2019-03-24T10:52:06.891Z,53.35
2019-03-24T10:54:38.277Z,59.55
2019-03-24T10:57:09.206Z,63.10
2019-03-24T10:59:40.642Z,60.25
2019-03-24T11:02:12.210Z,60.78
2019-03-24T11:04:43.538Z,67.27
2019-03-24T11:07:14.256Z,70.00
2019-03-24T11:09:45.244Z,63.58
2019-03-24T11:12:16.205Z,69.32
2019-03-24T11:14:46.940Z,69.87
2019-03-24T11:17:17.997Z,70.08
2019-03-24T11:19:49.345Z,66.45
2019-03-24T11:22:20.749Z,61.08
2019-03-24T11:24:52.173Z,62.43
2019-03-24T11:27:23.579Z,60.88
2019-03-24T11:29:54.875Z,59.35
2019-03-24T11:32:26.196Z,63.90
2019-03-24T11:34:57.580Z,58.78
2019-03-24T11:37:28.933Z,53.73
2019-03-24T11:40:00.360Z,56.10
2019-03-24T11:42:31.730Z,55.23
2019-03-24T11:45:04.732Z,53.40
2019-03-24T11:47:36.323Z,52.27
2019-03-24T11:50:09.717Z,53.98
2019-03-24T11:52:41.098Z,56.75
2019-03-24T11:55:12.954Z,53.30
2019-03-24T11:57:44.397Z,49.42
2019-03-24T12:00:17.975Z,54.60
2019-03-24T12:02:49.378Z,56.37
2019-03-24T12:05:20.705Z,54.27
2019-03-24T12:07:52.030Z,58.00
2019-03-24T12:10:23.399Z,52.75
2019-03-24T12:12:54.781Z,54.95
2019-03-24T12:15:26.104Z,49.00
2019-03-24T12:17:57.511Z,56.53
2019-03-24T12:20:29.530Z,58.65
2019-03-24T12:23:01.172Z,51.13
2019-03-24T12:25:32.559Z,46.33
2019-03-24T12:28:03.929Z,50.38
2019-03-24T12:30:35.371Z,53.23
2019-03-24T12:33:06.700Z,53.48
2019-03-24T12:35:38.019Z,53.48
2019-03-24T12:38:09.580Z,60.60
2019-03-24T12:40:43.608Z,61.28
2019-03-24T12:43:19.426Z,56.55
2019-03-24T12:45:47.995Z,57.67
2019-03-24T12:48:19.403Z,55.40
2019-03-24T12:50:50.853Z,56.48
2019-03-24T12:53:22.202Z,59.53
2019-03-24T12:55:53.702Z,59.35
2019-03-24T12:58:25.191Z,60.05
2019-03-24T13:00:56.576Z,64.10
2019-03-24T13:03:27.376Z,56.83
2019-03-24T13:05:58.692Z,67.00
2019-03-24T13:08:30.009Z,56.92
2019-03-24T13:11:01.341Z,61.30
2019-03-24T13:13:32.754Z,54.30
2019-03-24T13:16:03.566Z,56.08
2019-03-24T13:18:34.347Z,57.15
2019-03-24T13:21:05.890Z,52.25
2019-03-24T13:23:36.618Z,58.90
2019-03-24T13:26:07.431Z,51.90
2019-03-24T13:28:38.187Z,53.15
2019-03-24T13:31:08.902Z,59.77
2019-03-24T13:33:40.227Z,56.85
2019-03-24T13:36:12.379Z,55.67
2019-03-24T13:38:46.639Z,57.67
2019-03-24T13:41:17.547Z,54.87
2019-03-24T13:43:48.852Z,48.40
2019-03-24T13:46:20.165Z,53.98
2019-03-24T13:48:50.969Z,53.63
2019-03-24T13:51:21.699Z,59.97
2019-03-24T13:53:52.468Z,58.07
2019-03-24T13:56:23.801Z,58.85
2019-03-24T13:58:54.633Z,50.97
2019-03-24T14:01:25.480Z,52.40
2019-03-24T14:03:56.271Z,55.20
2019-03-24T14:06:26.995Z,54.10
2019-03-24T14:08:57.750Z,56.13
2019-03-24T14:11:29.069Z,49.60
2019-03-24T14:13:59.789Z,56.60
2019-03-24T14:16:30.521Z,49.23
2019-03-24T14:19:01.312Z,63.30
2019-03-24T14:21:32.873Z,48.33
2019-03-24T14:24:05.994Z,54.17
2019-03-24T14:26:36.817Z,53.00
2019-03-24T14:29:07.562Z,53.37
2019-03-24T14:31:38.285Z,52.37
2019-03-24T14:34:09.020Z,56.83
2019-03-24T14:36:39.824Z,56.63
2019-03-24T14:39:10.570Z,54.50
2019-03-24T14:41:41.393Z,53.53
2019-03-24T14:44:12.113Z,55.43
2019-03-24T14:46:44.175Z,53.37
2019-03-24T14:49:15.015Z,55.50
2019-03-24T14:51:45.748Z,53.30
2019-03-24T14:54:18.263Z,61.90
2019-03-24T14:56:49.101Z,55.57
2019-03-24T14:59:19.833Z,54.23
2019-03-24T15:01:50.645Z,52.60
2019-03-24T15:04:21.398Z,61.20
2019-03-24T15:06:52.205Z,55.27
2019-03-24T15:09:23.890Z,53.77
2019-03-24T15:11:54.736Z,55.03
2019-03-24T15:14:25.520Z,56.83
2019-03-24T15:16:56.267Z,57.73
2019-03-24T15:19:27.034Z,53.87
2019-03-24T15:21:57.760Z,56.17
2019-03-24T15:24:29.244Z,56.37
2019-03-24T15:27:00.244Z,54.77
2019-03-24T15:29:31.375Z,52.20
2019-03-24T15:32:02.229Z,55.33
2019-03-24T15:34:33.059Z,58.23
2019-03-24T15:37:04.023Z,55.80
2019-03-24T15:39:34.794Z,58.83
2019-03-24T15:42:05.637Z,54.73
2019-03-24T15:44:36.435Z,59.37
2019-03-24T15:47:08.819Z,49.93
2019-03-24T15:49:39.759Z,58.70
2019-03-24T15:52:10.581Z,51.43
2019-03-24T15:54:41.349Z,54.53
2019-03-24T15:57:12.226Z,55.70
2019-03-24T15:59:42.998Z,54.60
2019-03-24T16:02:13.816Z,54.47
2019-03-24T16:04:44.604Z,61.07
2019-03-24T16:07:15.343Z,61.60
2019-03-24T16:09:46.134Z,56.80
2019-03-24T16:12:16.924Z,59.17
2019-03-24T16:14:47.825Z,63.13
2019-03-24T16:17:18.575Z,60.23
2019-03-24T16:19:49.357Z,63.23
2019-03-24T16:22:20.183Z,62.13
2019-03-24T16:24:51.257Z,59.17
2019-03-24T16:27:22.774Z,59.07
2019-03-24T16:29:53.531Z,56.67
2019-03-24T16:32:24.259Z,54.53
2019-03-24T16:34:55.053Z,58.87
2019-03-24T16:37:25.874Z,57.83
2019-03-24T16:39:56.660Z,56.03
2019-03-24T16:42:27.493Z,58.57
2019-03-24T16:44:58.230Z,61.60
2019-03-24T16:47:29.052Z,62.77
2019-03-24T16:49:59.778Z,66.83
2019-03-24T16:52:30.772Z,68.63
2019-03-24T16:55:01.641Z,59.57
2019-03-24T16:57:32.357Z,64.00
2019-03-24T17:00:02.008Z,62.67
2019-03-24T17:02:31.664Z,63.53
2019-03-24T17:05:01.437Z,58.13
2019-03-24T17:07:31.096Z,71.50
2019-03-24T17:10:18.766Z,63.47
2019-03-24T17:12:48.413Z,67.97
2019-03-24T17:15:36.581Z,64.97
2019-03-24T17:18:06.446Z,70.73
2019-03-24T17:20:36.063Z,69.70
2019-03-24T17:23:05.847Z,63.90
2019-03-24T17:25:54.268Z,67.47
2019-03-24T17:28:23.873Z,61.50
2019-03-24T17:31:12.382Z,66.80
2019-03-24T17:34:00.010Z,68.97
2019-03-24T17:36:48.418Z,68.47
2019-03-24T17:39:36.684Z,68.90
2019-03-24T17:42:24.973Z,74.17
2019-03-24T17:45:15.243Z,75.90
2019-03-24T17:48:03.453Z,70.47
2019-03-24T17:50:51.750Z,78.23
2019-03-24T17:53:39.950Z,70.90
2019-03-24T17:56:28.044Z,76.77
2019-03-24T17:59:16.228Z,74.73
2019-03-24T18:02:13.923Z,70.03
2019-03-24T18:04:54.179Z,71.40
2019-03-24T18:07:42.214Z,76.33
2019-03-24T18:10:30.303Z,73.37
2019-03-24T18:13:18.596Z,80.63
2019-03-24T18:16:06.912Z,79.93
2019-03-24T18:18:55.412Z,76.87
2019-03-24T18:21:43.543Z,80.43
2019-03-24T18:24:31.910Z,83.43
2019-03-24T18:27:20.316Z,90.93
2019-03-24T18:30:11.618Z,92.60
2019-03-24T18:33:00.534Z,79.60
2019-03-24T18:35:30.232Z,81.83
2019-03-24T18:37:59.961Z,82.30
2019-03-24T18:40:29.779Z,86.80
2019-03-24T18:42:59.431Z,78.33
2019-03-24T18:45:29.070Z,72.13
2019-03-24T18:47:58.717Z,66.53
2019-03-24T18:50:28.515Z,70.03
2019-03-24T18:52:58.252Z,68.80
2019-03-24T18:55:28.158Z,63.67
2019-03-24T18:57:58.037Z,69.13
2019-03-24T19:00:27.912Z,63.87
2019-03-24T19:02:57.577Z,65.40
2019-03-24T19:05:35.967Z,60.50
2019-03-24T19:08:05.974Z,70.30
2019-03-24T19:10:35.754Z,60.43
2019-03-24T19:13:05.749Z,63.97
2019-03-24T19:15:37.406Z,61.97
2019-03-24T19:18:06.853Z,60.30
2019-03-24T19:20:55.150Z,59.50
2019-03-24T19:23:25.286Z,63.57
2019-03-24T19:25:54.990Z,61.30
2019-03-24T19:28:25.327Z,56.63
2019-03-24T19:30:55.111Z,64.47
2019-03-24T19:33:25.000Z,55.57
2019-03-24T19:35:55.636Z,60.20
2019-03-24T19:38:25.546Z,63.67
2019-03-24T19:40:55.446Z,68.20
2019-03-24T19:43:25.452Z,54.83
2019-03-24T19:45:55.279Z,58.73
2019-03-24T19:48:25.316Z,51.67
2019-03-24T19:50:55.554Z,55.33
2019-03-24T19:53:25.515Z,58.33
2019-03-24T19:55:55.502Z,58.37
2019-03-24T19:58:25.550Z,56.30
2019-03-24T20:00:55.293Z,51.27
2019-03-24T20:03:25.182Z,51.07
2019-03-24T20:05:55.077Z,56.53
2019-03-24T20:08:25.031Z,55.27
2019-03-24T20:10:55.132Z,55.93
2019-03-24T20:13:25.039Z,55.57
2019-03-24T20:15:54.727Z,57.13
2019-03-24T20:18:24.647Z,59.37
2019-03-24T20:20:54.739Z,55.37
2019-03-24T20:23:24.734Z,52.87
2019-03-24T20:25:54.560Z,60.90
2019-03-24T20:28:24.369Z,55.40
2019-03-24T20:30:54.369Z,50.47
2019-03-24T20:33:24.037Z,52.67
2019-03-24T20:35:53.980Z,60.13
2019-03-24T20:38:25.295Z,52.27
2019-03-24T20:40:55.178Z,53.73
2019-03-24T20:43:25.045Z,50.97
2019-03-24T20:45:54.675Z,47.97
2019-03-24T20:48:24.559Z,46.07
2019-03-24T20:50:54.348Z,47.57
2019-03-24T20:53:24.144Z,41.07
2019-03-24T20:55:54.179Z,44.07
2019-03-24T20:58:23.785Z,42.70
2019-03-24T21:00:53.743Z,46.23
2019-03-24T21:03:23.869Z,41.97
2019-03-24T21:05:53.985Z,45.17
2019-03-24T21:08:23.554Z,43.40
2019-03-24T21:10:53.152Z,38.40
2019-03-24T21:13:22.746Z,35.83
2019-03-24T21:15:52.354Z,43.23
2019-03-24T21:18:21.982Z,35.37
2019-03-24T21:20:51.684Z,37.70
2019-03-24T21:23:29.389Z,37.10
2019-03-24T21:25:52.590Z,34.23
2019-03-24T21:28:22.199Z,36.87
2019-03-24T21:30:51.831Z,31.97
2019-03-24T21:33:21.391Z,28.10
2019-03-24T21:35:50.991Z,32.53
2019-03-24T21:38:20.617Z,24.73
2019-03-24T21:40:50.923Z,26.83
2019-03-24T21:43:20.505Z,28.13
2019-03-24T21:45:50.231Z,25.07
2019-03-24T21:48:19.934Z,26.50
2019-03-24T21:50:49.535Z,23.53
2019-03-24T21:53:19.140Z,27.13
2019-03-24T21:55:48.774Z,25.87
2019-03-24T21:58:18.388Z,27.17
2019-03-24T22:00:47.949Z,27.30
2019-03-24T22:03:17.571Z,27.30
2019-03-24T22:05:47.153Z,30.53
2019-03-24T22:08:16.807Z,30.37
2019-03-24T22:10:46.401Z,28.20
2019-03-24T22:13:16.028Z,33.40
2019-03-24T22:15:45.705Z,30.53
2019-03-24T22:18:15.300Z,29.07
2019-03-24T22:20:49.024Z,31.47
2019-03-24T22:23:16.727Z,34.37
2019-03-24T22:25:46.410Z,33.47
2019-03-24T22:28:16.007Z,34.80
2019-03-24T22:30:45.733Z,39.23
2019-03-24T22:33:15.342Z,34.77
2019-03-24T22:35:47.101Z,30.57
2019-03-24T22:38:16.372Z,34.43
2019-03-24T22:40:45.923Z,36.23
2019-03-24T22:43:16.255Z,39.00
2019-03-24T22:45:45.849Z,43.50
2019-03-24T22:48:15.595Z,41.83
2019-03-24T22:50:45.188Z,35.00
2019-03-24T22:53:14.768Z,35.37
2019-03-24T22:55:44.345Z,41.33
2019-03-24T22:58:13.933Z,35.33
2019-03-24T23:00:53.523Z,38.20
2019-03-24T23:03:25.259Z,39.80
2019-03-24T23:05:55.206Z,39.57
2019-03-24T23:08:24.878Z,36.17
2019-03-24T23:10:54.510Z,37.47
2019-03-24T23:13:24.380Z,41.90
2019-03-24T23:15:54.006Z,40.07
2019-03-24T23:18:23.609Z,40.30
2019-03-24T23:20:53.445Z,41.30
2019-03-24T23:23:23.142Z,41.60
2019-03-24T23:25:52.831Z,38.27
2019-03-24T23:28:22.397Z,42.50
2019-03-24T23:30:51.997Z,43.07
2019-03-24T23:33:21.681Z,42.73
2019-03-24T23:35:51.261Z,39.83
2019-03-24T23:38:20.977Z,44.77
2019-03-24T23:40:50.586Z,37.87
2019-03-24T23:43:20.175Z,35.40
2019-03-24T23:45:50.549Z,41.97
2019-03-24T23:48:20.170Z,42.20
2019-03-24T23:50:49.917Z,41.60
2019-03-24T23:53:19.535Z,41.00
2019-03-24T23:55:49.143Z,42.83
2019-03-24T23:58:18.716Z,42.47
